createdAt,value
2017-12-05T00:02:00.541Z,29.27
2017-12-05T00:05:02.514Z,24.07
2017-12-05T00:08:04.439Z,21.57
2017-12-05T00:11:07.117Z,24.10
2017-12-05T00:14:09.004Z,21.57
2017-12-05T00:17:11.792Z,26.13
2017-12-05T00:20:13.754Z,19.17
2017-12-05T00:23:15.774Z,32.80
2017-12-05T00:26:18.461Z,22.27
2017-12-05T00:29:20.527Z,25.33
2017-12-05T00:32:22.558Z,28.10
2017-12-05T00:35:25.242Z,21.77
2017-12-05T00:38:27.930Z,19.70
2017-12-05T00:41:29.868Z,26.37
2017-12-05T00:44:31.761Z,20.57
2017-12-05T00:47:34.299Z,18.83
2017-12-05T00:50:36.194Z,18.43
2017-12-05T00:53:38.910Z,21.00
2017-12-05T00:56:40.977Z,18.27
2017-12-05T00:59:43.682Z,15.63
2017-12-05T01:02:45.635Z,13.33
2017-12-05T01:05:47.584Z,18.80
2017-12-05T01:08:49.603Z,14.53
2017-12-05T01:11:52.388Z,18.80
2017-12-05T01:14:54.284Z,24.90
2017-12-05T01:17:56.697Z,16.63
2017-12-05T01:20:59.460Z,19.73
2017-12-05T01:24:01.407Z,18.60
2017-12-05T01:27:03.324Z,15.43
2017-12-05T01:30:05.338Z,16.07
2017-12-05T01:33:08.029Z,22.37
2017-12-05T01:36:10.015Z,20.47
2017-12-05T01:39:12.094Z,18.70
2017-12-05T01:42:14.293Z,16.90
2017-12-05T01:45:16.184Z,17.77
2017-12-05T01:48:18.888Z,18.63
2017-12-05T01:51:21.583Z,24.50
2017-12-05T01:54:24.359Z,18.47
2017-12-05T01:57:26.365Z,22.27
2017-12-05T02:00:29.062Z,20.50
2017-12-05T02:03:30.974Z,18.27
2017-12-05T02:06:32.897Z,18.60
2017-12-05T02:09:34.814Z,24.43
2017-12-05T02:12:37.536Z,24.63
2017-12-05T02:15:39.432Z,22.73
2017-12-05T02:18:41.429Z,16.83
2017-12-05T02:21:43.345Z,20.17
2017-12-05T02:24:46.121Z,14.03
2017-12-05T02:27:48.196Z,19.30
2017-12-05T02:30:50.175Z,24.47
2017-12-05T02:33:52.071Z,16.60
2017-12-05T02:36:54.391Z,14.30
2017-12-05T02:39:57.210Z,16.17
2017-12-05T02:42:59.938Z,17.13
2017-12-05T02:46:01.853Z,16.67
2017-12-05T02:49:03.797Z,20.50
2017-12-05T02:52:05.738Z,18.17
2017-12-05T02:55:08.422Z,15.37
2017-12-05T02:58:11.076Z,18.07
2017-12-05T03:01:13.019Z,16.97
2017-12-05T03:04:15.702Z,18.57
2017-12-05T03:07:18.430Z,21.13
2017-12-05T03:10:21.102Z,16.70
2017-12-05T03:13:23.087Z,22.50
2017-12-05T03:16:24.981Z,12.93
2017-12-05T03:19:27.665Z,15.27
2017-12-05T03:22:29.586Z,19.77
2017-12-05T03:25:31.512Z,13.17
2017-12-05T03:28:33.414Z,17.37
2017-12-05T03:31:35.374Z,16.70
2017-12-05T03:34:37.333Z,15.10
2017-12-05T03:37:39.289Z,20.33
2017-12-05T03:40:41.217Z,13.07
2017-12-05T03:43:43.474Z,16.47
2017-12-05T03:46:45.941Z,13.37
2017-12-05T03:49:47.921Z,17.73
2017-12-05T03:52:51.646Z,17.00
2017-12-05T03:55:54.450Z,18.17
2017-12-05T03:58:57.462Z,12.50
2017-12-05T04:02:00.022Z,14.40
2017-12-05T04:05:02.382Z,17.17
2017-12-05T04:08:05.291Z,12.07
2017-12-05T04:11:07.641Z,18.00
2017-12-05T04:14:10.750Z,15.43
2017-12-05T04:17:13.206Z,17.13
2017-12-05T04:20:16.046Z,18.80
2017-12-05T04:23:19.758Z,11.33
2017-12-05T04:26:22.062Z,11.30
2017-12-05T04:29:24.907Z,9.30
2017-12-05T04:32:27.689Z,12.37
2017-12-05T04:35:29.605Z,11.43
2017-12-05T04:38:31.589Z,19.20
2017-12-05T04:41:33.504Z,12.83
2017-12-05T04:44:35.423Z,14.77
2017-12-05T04:47:37.342Z,15.83
2017-12-05T04:50:39.260Z,12.77
2017-12-05T04:53:41.945Z,17.70
2017-12-05T04:56:43.882Z,18.27
2017-12-05T04:59:45.787Z,12.50
2017-12-05T05:02:47.735Z,21.90
2017-12-05T05:05:49.665Z,23.07
2017-12-05T05:08:51.650Z,14.57
2017-12-05T05:11:53.613Z,15.67
2017-12-05T05:14:55.529Z,18.63
2017-12-05T05:17:58.334Z,19.40
2017-12-05T05:21:01.117Z,13.73
2017-12-05T05:24:03.010Z,12.00
2017-12-05T05:27:04.952Z,13.30
2017-12-05T05:30:06.939Z,12.63
2017-12-05T05:33:08.858Z,14.33
2017-12-05T05:36:10.834Z,11.00
2017-12-05T05:39:13.632Z,11.57
2017-12-05T05:42:15.529Z,13.10
2017-12-05T05:45:18.206Z,13.87
2017-12-05T05:48:20.118Z,16.57
2017-12-05T05:51:22.822Z,20.63
2017-12-05T05:54:25.571Z,14.93
2017-12-05T05:57:27.506Z,18.27
2017-12-05T06:00:30.205Z,17.70
2017-12-05T06:03:33.059Z,17.87
2017-12-05T06:06:35.651Z,15.17
2017-12-05T06:09:37.667Z,16.20
2017-12-05T06:12:40.320Z,13.30
2017-12-05T06:15:42.249Z,11.57
2017-12-05T06:18:45.656Z,17.03
2017-12-05T06:21:47.743Z,12.57
2017-12-05T06:24:49.656Z,14.83
2017-12-05T06:27:51.600Z,15.60
2017-12-05T06:30:53.488Z,18.03
2017-12-05T06:33:55.521Z,16.43
2017-12-05T06:36:57.438Z,16.70
2017-12-05T06:39:59.366Z,16.37
2017-12-05T06:43:02.359Z,19.10
2017-12-05T06:46:05.957Z,19.17
2017-12-05T06:49:07.860Z,18.00
2017-12-05T06:52:10.554Z,18.50
2017-12-05T06:55:12.475Z,18.17
2017-12-05T06:58:14.430Z,14.70
2017-12-05T07:01:17.107Z,15.40
2017-12-05T07:04:19.035Z,17.50
2017-12-05T07:07:20.927Z,16.47
2017-12-05T07:10:22.857Z,17.43
2017-12-05T07:13:25.558Z,16.47
2017-12-05T07:16:27.502Z,19.50
2017-12-05T07:19:29.426Z,18.97
2017-12-05T07:22:32.116Z,26.37
2017-12-05T07:25:34.040Z,24.70
2017-12-05T07:28:35.971Z,23.57
2017-12-05T07:31:37.956Z,21.83
2017-12-05T07:34:39.901Z,23.57
2017-12-05T07:37:41.828Z,28.23
2017-12-05T07:40:44.681Z,19.77
2017-12-05T07:43:46.593Z,21.97
2017-12-05T07:46:48.551Z,20.93
2017-12-05T07:49:50.453Z,18.83
2017-12-05T07:52:52.578Z,20.47
2017-12-05T07:55:55.260Z,18.53
2017-12-05T07:58:57.208Z,21.67
2017-12-05T08:01:59.108Z,21.70
2017-12-05T08:05:01.044Z,23.57
2017-12-05T08:08:02.961Z,22.50
2017-12-05T08:11:04.901Z,26.07
2017-12-05T08:14:07.557Z,23.53
2017-12-05T08:17:09.508Z,27.10
2017-12-05T08:20:11.405Z,27.90
2017-12-05T08:23:13.324Z,26.00
2017-12-05T08:26:15.226Z,27.63
2017-12-05T08:29:17.149Z,24.30
2017-12-05T08:32:19.057Z,23.90
2017-12-05T08:35:21.005Z,24.43
2017-12-05T08:38:22.919Z,23.77
2017-12-05T08:41:24.864Z,23.13
2017-12-05T08:44:26.798Z,22.07
2017-12-05T08:47:28.861Z,25.93
2017-12-05T08:50:30.785Z,23.87
2017-12-05T08:53:33.499Z,23.13
2017-12-05T08:56:35.417Z,23.43
2017-12-05T08:59:37.336Z,24.07
2017-12-05T09:02:40.025Z,23.17
2017-12-05T09:05:41.948Z,31.43
2017-12-05T09:08:43.850Z,26.00
2017-12-05T09:11:45.856Z,30.50
2017-12-05T09:14:47.772Z,25.90
2017-12-05T09:17:51.155Z,23.90
2017-12-05T09:20:52.408Z,27.77
2017-12-05T09:23:54.352Z,18.83
2017-12-05T09:26:56.249Z,21.67
2017-12-05T09:29:58.184Z,21.07
2017-12-05T09:33:00.101Z,19.63
2017-12-05T09:36:02.039Z,22.70
2017-12-05T09:39:03.943Z,23.17
2017-12-05T09:42:06.661Z,21.00
2017-12-05T09:45:08.591Z,27.57
2017-12-05T09:48:10.653Z,19.17
2017-12-05T09:51:12.550Z,20.80
2017-12-05T09:54:14.665Z,23.63
2017-12-05T09:57:16.589Z,25.07
2017-12-05T10:00:19.366Z,26.50
2017-12-05T10:03:22.059Z,27.13
2017-12-05T10:06:24.753Z,27.40
2017-12-05T10:09:27.440Z,24.67
2017-12-05T10:12:29.378Z,27.27
2017-12-05T10:15:31.293Z,25.47
2017-12-05T10:18:33.233Z,28.30
2017-12-05T10:21:35.154Z,25.00
2017-12-05T10:24:37.765Z,29.67
2017-12-05T10:27:39.670Z,22.50
2017-12-05T10:30:42.356Z,22.13
2017-12-05T10:33:45.046Z,21.63
2017-12-05T10:36:46.985Z,20.83
2017-12-05T10:39:48.877Z,21.47
2017-12-05T10:42:52.575Z,18.97
2017-12-05T10:45:54.496Z,19.10
2017-12-05T10:48:56.581Z,23.80
2017-12-05T10:51:58.502Z,19.57
2017-12-05T10:55:01.186Z,20.00
2017-12-05T10:58:03.106Z,18.67
2017-12-05T11:01:05.045Z,18.03
2017-12-05T11:04:06.961Z,19.87
2017-12-05T11:07:08.919Z,17.23
2017-12-05T11:10:11.607Z,21.17
2017-12-05T11:13:13.544Z,26.37
2017-12-05T11:16:15.463Z,21.57
2017-12-05T11:19:17.393Z,18.03
2017-12-05T11:22:19.284Z,18.90
2017-12-05T11:25:21.231Z,17.17
2017-12-05T11:28:24.562Z,19.63
2017-12-05T11:31:27.264Z,23.63
2017-12-05T11:34:29.947Z,20.07
2017-12-05T11:37:32.646Z,21.37
2017-12-05T11:40:34.565Z,17.47
2017-12-05T11:43:36.583Z,16.43
2017-12-05T11:46:38.502Z,18.13
2017-12-05T11:49:41.205Z,19.00
2017-12-05T11:52:43.970Z,19.80
2017-12-05T11:55:45.911Z,15.00
2017-12-05T11:58:48.694Z,15.73
2017-12-05T12:01:50.794Z,13.57
2017-12-05T12:04:53.496Z,19.17
2017-12-05T12:07:55.445Z,13.93
2017-12-05T12:10:57.365Z,17.30
2017-12-05T12:14:00.245Z,14.57
2017-12-05T12:17:02.217Z,16.57
2017-12-05T12:20:04.134Z,15.77
2017-12-05T12:23:06.892Z,17.40
2017-12-05T12:26:08.810Z,14.67
2017-12-05T12:29:11.611Z,14.47
2017-12-05T12:32:13.582Z,12.33
2017-12-05T12:35:15.681Z,15.83
2017-12-05T12:38:18.682Z,14.63
2017-12-05T12:41:21.378Z,15.07
2017-12-05T12:44:23.387Z,15.10
2017-12-05T12:47:26.074Z,16.20
2017-12-05T12:50:28.785Z,9.77
2017-12-05T12:53:31.565Z,10.83
2017-12-05T12:56:33.516Z,12.10
2017-12-05T12:59:42.032Z,13.30
2017-12-05T13:02:44.046Z,12.20
2017-12-05T13:05:45.971Z,15.33
2017-12-05T13:08:48.966Z,13.37
2017-12-05T13:11:50.849Z,11.73
2017-12-05T13:14:54.255Z,10.63
2017-12-05T13:17:56.956Z,11.40
2017-12-05T13:20:58.889Z,13.10
2017-12-05T13:24:00.811Z,9.97
2017-12-05T13:27:04.234Z,13.70
2017-12-05T13:30:06.148Z,10.20
2017-12-05T13:33:08.074Z,9.03
2017-12-05T13:36:09.960Z,10.00
2017-12-05T13:39:11.936Z,12.13
2017-12-05T13:42:13.852Z,9.23
2017-12-05T13:45:16.608Z,11.57
2017-12-05T13:48:19.195Z,9.10
2017-12-05T13:51:21.114Z,12.93
2017-12-05T13:54:23.002Z,11.93
2017-12-05T13:57:25.014Z,12.87
2017-12-05T14:00:28.582Z,14.33
2017-12-05T14:03:30.501Z,8.97
2017-12-05T14:06:32.444Z,9.07
2017-12-05T14:09:34.437Z,11.37
2017-12-05T14:12:36.354Z,12.80
2017-12-05T14:15:38.297Z,12.40
2017-12-05T14:18:40.195Z,11.03
2017-12-05T14:21:42.129Z,12.93
2017-12-05T14:24:44.321Z,13.47
2017-12-05T14:27:46.237Z,10.20
2017-12-05T14:30:48.236Z,9.77
2017-12-05T14:33:50.150Z,8.53
2017-12-05T14:36:53.727Z,7.70
2017-12-05T14:39:55.841Z,12.10
2017-12-05T14:42:57.757Z,14.30
2017-12-05T14:45:59.882Z,10.40
2017-12-05T14:49:01.861Z,9.27
2017-12-05T14:52:03.782Z,7.50
2017-12-05T14:55:05.697Z,6.57
2017-12-05T14:58:07.641Z,8.03
2017-12-05T15:01:09.549Z,11.30
2017-12-05T15:04:11.570Z,6.87
2017-12-05T15:07:13.593Z,7.63
2017-12-05T15:10:16.281Z,6.67
2017-12-05T15:13:18.189Z,6.43
2017-12-05T15:16:20.951Z,11.27
2017-12-05T15:19:22.832Z,6.40
2017-12-05T15:22:24.849Z,6.13
2017-12-05T15:25:27.538Z,6.10
2017-12-05T15:28:30.362Z,8.73
2017-12-05T15:31:32.281Z,8.60
2017-12-05T15:34:34.232Z,5.93
2017-12-05T15:37:36.144Z,7.07
2017-12-05T15:40:38.081Z,6.20
2017-12-05T15:43:40.771Z,5.83
2017-12-05T15:46:43.446Z,11.23
2017-12-05T15:49:45.371Z,5.77
2017-12-05T15:52:47.297Z,6.00
2017-12-05T15:55:49.245Z,8.13
2017-12-05T15:58:51.211Z,5.80
2017-12-05T16:01:53.873Z,5.17
2017-12-05T16:04:55.795Z,6.20
2017-12-05T16:07:58.494Z,7.10
2017-12-05T16:11:01.205Z,9.67
2017-12-05T16:14:03.131Z,8.17
2017-12-05T16:17:05.076Z,5.77
2017-12-05T16:20:07.105Z,6.13
2017-12-05T16:23:09.026Z,9.60
2017-12-05T16:26:11.787Z,13.30
2017-12-05T16:29:13.698Z,7.00
2017-12-05T16:32:16.379Z,7.67
2017-12-05T16:35:18.370Z,8.97
2017-12-05T16:38:20.340Z,13.43
2017-12-05T16:41:22.340Z,11.17
2017-12-05T16:44:25.997Z,10.00
2017-12-05T16:47:27.939Z,8.70
2017-12-05T16:50:30.641Z,8.87
2017-12-05T16:53:32.561Z,9.23
2017-12-05T16:56:34.457Z,10.73
2017-12-05T16:59:36.415Z,9.73
2017-12-05T17:02:38.342Z,11.40
2017-12-05T17:05:40.295Z,11.77
2017-12-05T17:08:42.210Z,10.93
2017-12-05T17:11:44.224Z,11.00
2017-12-05T17:14:46.914Z,10.67
2017-12-05T17:17:48.882Z,13.53
2017-12-05T17:20:50.993Z,14.97
2017-12-05T17:23:53.727Z,12.07
2017-12-05T17:26:55.672Z,13.57
2017-12-05T17:29:58.447Z,11.67
2017-12-05T17:33:00.384Z,14.57
2017-12-05T17:36:02.327Z,12.50
2017-12-05T17:39:04.218Z,14.43
2017-12-05T17:42:06.189Z,13.77
2017-12-05T17:45:08.087Z,13.50
2017-12-05T17:48:10.945Z,15.97
2017-12-05T17:51:12.985Z,16.40
2017-12-05T17:54:15.692Z,15.07
2017-12-05T17:57:18.446Z,15.17
2017-12-05T18:00:21.183Z,16.80
2017-12-05T18:03:23.873Z,15.40
2017-12-05T18:06:25.826Z,17.07
2017-12-05T18:09:27.734Z,18.03
2017-12-05T18:12:29.679Z,14.03
2017-12-05T18:15:31.642Z,20.97
2017-12-05T18:18:33.612Z,18.27
2017-12-05T18:21:36.321Z,22.40
2017-12-05T18:24:38.292Z,16.77
2017-12-05T18:27:40.998Z,24.10
2017-12-05T18:30:43.265Z,17.50
2017-12-05T18:33:45.954Z,17.00
2017-12-05T18:36:48.824Z,16.73
2017-12-05T18:39:51.465Z,15.00
2017-12-05T18:42:53.412Z,16.33
2017-12-05T18:45:55.521Z,15.00
2017-12-05T18:48:57.494Z,14.37
2017-12-05T18:51:59.505Z,13.83
2017-12-05T18:55:01.483Z,12.60
2017-12-05T18:58:03.382Z,13.23
2017-12-05T19:01:05.445Z,12.93
2017-12-05T19:04:07.351Z,14.83
2017-12-05T19:07:09.297Z,16.90
2017-12-05T19:10:11.271Z,15.07
2017-12-05T19:13:13.192Z,14.13
2017-12-05T19:16:15.105Z,14.33
2017-12-05T19:19:17.942Z,14.60
2017-12-05T19:22:19.860Z,13.90
2017-12-05T19:25:21.843Z,16.27
2017-12-05T19:28:23.767Z,15.03
2017-12-05T19:31:26.491Z,18.60
2017-12-05T19:34:29.154Z,18.90
2017-12-05T19:37:31.179Z,12.43
2017-12-05T19:40:33.872Z,17.30
2017-12-05T19:43:36.612Z,16.63
2017-12-05T19:46:38.527Z,13.80
2017-12-05T19:49:40.494Z,11.90
2017-12-05T19:52:42.434Z,11.53
2017-12-05T19:55:45.275Z,10.70
2017-12-05T19:58:47.229Z,12.33
2017-12-05T20:01:49.902Z,9.97
2017-12-05T20:04:51.974Z,13.60
2017-12-05T20:07:53.894Z,14.17
2017-12-05T20:10:55.857Z,17.17
2017-12-05T20:13:57.793Z,17.73
2017-12-05T20:16:59.690Z,15.70
2017-12-05T20:20:01.734Z,15.30
2017-12-05T20:23:03.659Z,24.97
2017-12-05T20:26:05.614Z,23.17
2017-12-05T20:29:08.301Z,21.57
2017-12-05T20:32:10.226Z,15.97
2017-12-05T20:35:12.130Z,19.60
2017-12-05T20:38:14.087Z,18.13
2017-12-05T20:41:16.014Z,18.43
2017-12-05T20:44:17.958Z,27.60
2017-12-05T20:47:20.657Z,22.80
2017-12-05T20:50:22.608Z,21.00
2017-12-05T20:53:24.532Z,21.83
2017-12-05T20:56:27.270Z,19.77
2017-12-05T20:59:29.353Z,15.83
2017-12-05T21:02:32.061Z,19.37
2017-12-05T21:05:34.826Z,21.87
2017-12-05T21:08:38.647Z,17.30
2017-12-05T21:11:40.629Z,19.07
2017-12-05T21:14:42.650Z,15.63
2017-12-05T21:17:44.573Z,15.67
2017-12-05T21:20:46.489Z,17.83
2017-12-05T21:23:48.478Z,15.20
2017-12-05T21:26:50.404Z,17.53
2017-12-05T21:29:53.092Z,20.50
2017-12-05T21:32:55.090Z,16.00
2017-12-05T21:35:57.025Z,14.77
2017-12-05T21:38:58.994Z,16.50
2017-12-05T21:42:01.688Z,15.73
2017-12-05T21:45:04.429Z,19.90
2017-12-05T21:48:06.306Z,13.57
2017-12-05T21:51:08.228Z,16.27
2017-12-05T21:54:10.157Z,16.37
2017-12-05T21:57:12.120Z,13.53
2017-12-05T22:00:14.913Z,12.67
2017-12-05T22:03:16.868Z,14.03
2017-12-05T22:06:18.765Z,14.83
2017-12-05T22:09:20.755Z,15.73
2017-12-05T22:12:22.698Z,15.90
2017-12-05T22:15:24.632Z,13.63
2017-12-05T22:18:26.553Z,15.70
2017-12-05T22:21:28.589Z,15.43
2017-12-05T22:24:30.486Z,12.00
2017-12-05T22:27:33.208Z,12.60
2017-12-05T22:30:35.129Z,15.10
2017-12-05T22:33:37.108Z,13.07
2017-12-05T22:36:39.010Z,14.17
2017-12-05T22:39:42.454Z,16.77
2017-12-05T22:42:45.217Z,16.30
2017-12-05T22:45:47.166Z,16.73
2017-12-05T22:48:49.087Z,19.53
2017-12-05T22:51:51.089Z,18.50
2017-12-05T22:54:55.084Z,17.30
2017-12-05T22:57:57.013Z,19.63
2017-12-05T23:00:59.704Z,22.43
2017-12-05T23:04:01.644Z,17.60
2017-12-05T23:07:03.565Z,16.43
2017-12-05T23:10:06.182Z,18.87
2017-12-05T23:13:08.961Z,18.70
2017-12-05T23:19:30.884Z,18.93
2017-12-05T23:22:33.609Z,22.67
2017-12-05T23:25:35.548Z,23.80
2017-12-05T23:28:37.532Z,20.13
2017-12-05T23:31:39.538Z,17.10
2017-12-05T23:34:41.712Z,21.17
2017-12-05T23:37:44.407Z,17.67
2017-12-05T23:40:47.139Z,18.13
2017-12-05T23:43:49.075Z,16.73
2017-12-05T23:46:51.040Z,17.87
2017-12-05T23:49:52.964Z,20.13
2017-12-05T23:52:55.838Z,20.13
2017-12-05T23:55:57.752Z,21.97
2017-12-05T23:59:00.513Z,21.67
